Nis, Serbia
Current Conditions -  °F | °C
As of 4:00 PM on Saturday 20 Dec 2014 (Local Time) from LYNI Reporting Station
Few Clouds Few Clouds  
Wind Chill: 46°   Ceiling: Unl
Heat Index: 46°   Visibility: 6mi
Dew Point: 39°   Wind: 2mph
Humidity: 76%   Direction: NA
Pressure: 30.21"   Gusts: NA
Location:  43.33°N, 21.9°E
Report Text: LYNI 201400Z VRB02KT 9999 FEW037 08/04 Q1023
Loading
Personal Weather Stations






























Interactive Weather Map New forecast layout! Learn more

10-Day Weather Forecast

Advertisements
Track Severe Weather on mobile